Blowing Sand Mountains, Nevada Weather observations

Data are for observation ending at time listed.
 Day   Time    Ave.   Ave.  Ave.  Vector   Max.   Stn.    Total    Solar   Ave.  
  of    of     Air    Rel.  Wind   Wind    Wind   Baro.  Precip.   Rad.    Soil  
Year   Day     Temp.  Hum.  Speed  Dir.    Gust   Pres.                    Temp. 
2015   (PST)    F      %     mph   deg.    mph     mb.     in.     W/m2     F   
------------------------------------------------------------------------------
 110   15:30   78.0     4    6.0    36     12.9    874.9     0.00     605     54.9
 110   15:40   77.6     4    7.9     7     15.7    874.8     0.00     575     55.0
 110   15:50   77.5     4    6.1   356     13.6    874.7     0.00     541     55.1
 110   16:00   78.1     4    7.2     1     12.6    874.7     0.00     508     55.1
 110   16:10   77.6     4    6.8    45     12.9    874.7     0.00     472     55.2
 110   16:20   77.5     4    7.6    34     14.9    874.6     0.00     436     55.3
 110   16:30   77.2     5   10.0     8     16.5    874.6     0.00     400     55.4
 110   16:40   76.9     4   10.3    31     14.7    874.6     0.00     365     55.5
 110   16:50   76.7     4    8.3    24     13.4    874.5     0.00     331     55.5
 110   17:00   76.6     4    5.8    12      9.9    874.4     0.00     295     55.7
 110   17:10   76.6     4    7.6   360     14.2    874.4     0.00     261     55.8
 110   17:20   76.2     4    8.8    10     13.8    874.4     0.00     225     55.9
 110   17:30   75.8     4    7.5    12     12.2    874.3     0.00     191     55.9
 110   17:40   75.6     4    6.7    20     10.6    874.3     0.00     157     56.0
 110   17:50   75.2     4    4.7     8      8.4    874.3     0.00     123     56.1
 110   18:00   74.5     5    6.8     9     10.0    874.3     0.00      86     56.2
 110   18:10   73.7     5    5.6     6      9.1    874.3     0.00      52     56.3
 110   18:20   72.5     5    3.2    16      5.5    874.4     0.00      22     56.4
 110   18:30   70.6     5    4.1    20      5.6    874.5     0.00      10     56.5
 110   18:40   68.8     6    4.2    34      5.0    874.5     0.00       4     56.6
 110   18:50   67.3     6    4.3    39      5.5    874.6     0.00       1     56.7
 110   19:00   65.5     6    0.9    35      3.1    874.7     0.00       0     56.8
 110   19:10   64.7     6    0.4   135      1.9    874.8     0.00       0     56.8
 110   19:20   63.2     7    1.3   144      3.5    874.9     0.00       0     56.9
 110   19:30   60.9     7    1.7   151      3.7    875.0     0.00       0     57.0
 110   19:40   61.7     7    2.1   124      3.9    875.1     0.00       0     57.1
 110   19:50   56.8     7    4.1   202      5.6    875.3     0.00       0     57.1
 110   20:00   55.6     8    2.8   169      4.5    875.4     0.00       0     57.2
 110   20:10   54.9     8    0.6   183      1.5    875.5     0.00       0     57.3
 110   20:20   53.5     8    0.4   136      2.0    875.6     0.00       0     57.3
 110   20:30   53.5     9    0.8    74      1.7    875.7     0.00       0     57.4
 110   20:40   53.5     8    0.4   127      1.5    875.8     0.00       0     57.4
 110   20:50   52.1     9    2.6    98      3.9    875.7     0.00       0     57.5
 110   21:00   51.5     9    1.4    55      3.5    875.8     0.00       0     57.5
 110   21:10   49.7    10    0.8    61      2.3    875.9     0.00       0     57.5
 110   21:20   50.7    10    2.8   106      3.9    875.8     0.00       0     57.6
 110   21:30   53.5    10    3.5    96      4.2    875.8     0.00       0     57.6
 110   21:40   51.3    11    3.2    96      4.2    875.8     0.00       0     57.6
 110   21:50   51.5    11    1.5   110      4.4    875.8     0.00       0     57.7
 110   22:00   49.7    12    2.2   122      5.0    875.8     0.00       0     57.7
 110   22:10   51.5    12    3.6    75      5.6    875.8     0.00       0     57.7
 110   22:20   50.3    12    1.9   162      3.8    875.8     0.00       0     57.7
 110   22:30   46.5    12    3.7   177      4.2    875.8     0.00       0     57.8
 110   22:40   46.4    14    4.5   169      5.8    875.9     0.00       0     57.8
 110   22:50   46.9    14    2.5   125      5.5    876.0     0.00       0     57.8
 110   23:00   46.6    14    1.9    58      3.1    876.0     0.00       0     57.8
 110   23:10   46.1    15    2.2    72      3.4    876.0     0.00       0     57.8
 110   23:20   46.6    16    3.1   150      4.3    876.0     0.00       0     57.8
 110   23:30   46.5    16    3.3   152      5.2    876.0     0.00       0     57.8
 110   23:40   46.9    14    3.2   129      5.5    876.0     0.00       0     57.8
 110   23:50   46.1    14    1.8    50      3.9    876.1     0.00       0     57.8
 111    0:00   44.4    16    2.3    96      4.0    876.1     0.00       0     57.8
 111    0:10   44.9    18    3.5   137      4.5    876.0     0.00       0     57.8
 111    0:20   45.2    19    3.2   134      3.9    875.9     0.00       0     57.7
 111    0:30   43.8    19    3.2   129      4.5    875.8     0.00       0     57.7
 111    0:40   44.5    22    3.4    75      4.6    875.8     0.00       0     57.7
 111    0:50   44.9    20    4.3   170      5.6    875.7     0.00       0     57.7
 111    1:00   43.3    20    2.4   115      4.1    875.7     0.00       0     57.7
 111    1:10   38.7    17    1.4   331      2.9    875.8     0.00       0     57.6
 111    1:20   38.2    18    2.6    29      3.9    875.9     0.00       0     57.6
 111    1:30   40.2    18    2.2    57      4.2    875.9     0.00       0     57.6
 111    1:40   42.1    18    3.3    83      4.6    875.8     0.00       0     57.5
 111    1:50   41.4    20    3.6    81      4.6    875.8     0.00       0     57.5
 111    2:00   43.5    21    1.6    99      5.8    875.8     0.00       0     57.5
 111    2:10   39.7    19    3.4   240      6.1    875.9     0.00       0     57.5
 111    2:20   38.1    19    2.2    26      4.2    876.0     0.00       0     57.4
 111    2:30   38.3    19    1.9    30      3.0    876.1     0.00       0     57.4
 111    2:40   39.0    20    0.3    77      0.9    876.0     0.00       0     57.3
 111    2:50   37.8    21    2.1   133      3.1    876.1     0.00       0     57.3
 111    3:00   37.6    22    2.8   120      3.5    876.1     0.00       0     57.3
 111    3:10   38.0    22    1.5    86      2.1    876.1     0.00       0     57.3
 111    3:20   38.1    22    1.9   140      3.4    876.1     0.00       0     57.2
 111    3:30   37.8    25    3.5   188      4.4    876.1     0.00       0     57.1
 111    3:40   37.5    25    3.0   125      3.8    876.1     0.00       0     57.1
 111    3:50   37.3    25    2.5    71      4.1    876.1     0.00       0     57.1
 111    4:00   38.3    24    2.2    76      3.1    876.1     0.00       0     57.0
 111    4:10   37.1    25    1.6   135      3.3    876.0     0.00       0     57.0
 111    4:20   37.8    27    1.4   183      2.5    876.1     0.00       0     56.9
 111    4:30   37.2    26    1.1     5      3.7    876.2     0.00       0     56.9
 111    4:40   34.2    24    2.6    36      4.2    876.2     0.00       0     56.9
 111    4:50   34.4    24    1.4   234      3.7    876.2     0.00       0     56.8
 111    5:00   34.2    24    2.8   198      5.5    876.3     0.00       1     56.8
 111    5:10   32.3    24    2.6    10      4.7    876.3     0.00       2     56.7
 111    5:20   31.8    24    2.0    12      3.6    876.4     0.00       8     56.7
 111    5:30   34.1    27    1.5    77      2.3    876.5     0.00      16     56.6
 111    5:40   36.2    27    1.4    93      2.9    876.5     0.00      31     56.6
 111    5:50   36.6    27    1.6   146      3.9    876.5     0.00      59     56.5
 111    6:00   38.3    28    2.3   140      3.9    876.6     0.00      95     56.4
 111    6:10   41.3    27    1.9   116      3.9    876.6     0.00     126     56.4
 111    6:20   42.1    24    1.1    15      2.0    876.6     0.00     159     56.3
 111    6:30   40.0    22    1.9   285      4.3    876.7     0.00     194     56.2
 111    6:40   39.1    21    1.4   308      2.3    876.8     0.00     229     56.2
 111    6:50   41.2    21    0.5   349      1.7    876.8     0.00     265     56.1
 111    7:00   45.9    20    0.4    43      1.8    876.7     0.00     302     56.1
 111    7:10   50.8    23    3.0    85      4.5    876.7     0.00     338     56.0
 111    7:20   54.4    21    2.4    78      4.2    876.7     0.00     371     56.0
 111    7:30   57.2    20    1.9    93      2.9    876.7     0.00     403     55.9
 111    7:40   60.3    18    0.6   137      2.0    876.6     0.00     435     55.9
 111    7:50   62.7    15    1.5   238      3.8    876.6     0.00     468     55.8
 111    8:00   59.7    17    2.6   268      4.1    876.5     0.00     502     55.8
 111    8:10   60.2    16    3.0   264      5.3    876.5     0.00     537     55.8
 111    8:20   61.4    16    2.2   282      4.4    876.5     0.00     569     55.7
 111    8:30   62.9    15    1.1   267      2.3    876.4     0.00     600     55.7
 111    8:40   65.7    14    0.9    57      2.8    876.4     0.00     631     55.6
 111    8:50   67.7    13    0.7    92      2.9    876.4     0.00     660     55.5
 111    9:00   69.3    13    1.6    91      3.7    876.3     0.00     688     55.5
 111    9:10   71.3    12    1.3   165      3.6    876.3     0.00     714     55.5
 111    9:20   72.0    12    0.9    73      2.9    876.3     0.00     740     55.4
 111    9:30   72.3    12    2.7    84      6.3    876.2     0.00     765     55.4
 111    9:40   70.8    12    2.2    85      4.5    876.2     0.00     789     55.3
 111    9:50   73.1    12    2.3    79      5.9    876.2     0.00     813     55.3
 111   10:00   72.6    12    2.4   117      5.3    876.1     0.00     834     55.2
 111   10:10   74.2    11    2.6   109      5.0    876.0     0.00     855     55.2
 111   10:20   73.7    11    2.3   111      5.9    875.9     0.00     873     55.2
 111   10:30   74.1    11    2.3    58      6.6    875.8     0.00     892     55.1
 111   10:40   74.3    11    2.1   321      5.3    875.8     0.00     906     55.1
 111   10:50   74.8    11    3.2   263      8.8    875.6     0.00     918     55.1
 111   11:00   75.1    11    1.9   350      5.3    875.6     0.00     930     55.1
 111   11:10   76.8    10    1.3   239      7.7    875.4     0.00     939     55.1
 111   11:20   75.6    10    2.8   252      6.6    875.2     0.00     948     55.1
 111   11:30   77.6     9    1.4   113      4.2    875.0     0.00     954     55.0
 111   11:40   78.7     8    2.9   114      8.0    874.8     0.00     960     55.0
 111   11:50   77.5     8    4.1   154      7.8    874.6     0.00     965     55.1
 111   12:00   77.2     8    3.8    24     10.5    874.5     0.00     962     55.1
 111   12:10   76.8     8    4.1    27      9.7    874.3     0.00     962     55.1
 111   12:20   77.8     7    3.0    72     12.2    874.1     0.00     960     55.1
 111   12:30   78.7     6    4.9   358      8.6    873.9     0.00     954     55.2
 111   12:40   78.6     6    4.1    65      8.8    873.8     0.00     947     55.2
 111   12:50   78.4     6    4.5   107     13.2    873.6     0.00     943     55.2
 111   13:00   79.5     6    3.3   178      9.1    873.4     0.00     933     55.2
 111   13:10   80.1     6    3.6   172      7.8    873.3     0.00     925     55.3
 111   13:20   80.2     6    4.3   118     12.2    873.1     0.00     918     55.3
 111   13:30   81.4     5    8.2   170     15.0    872.9     0.00     912     55.4
 111   13:40   81.4     5    4.4   200     11.6    872.8     0.00     899     55.4
 111   13:50   81.1     5    3.0   232      6.9    872.7     0.00     887     55.4
 111   14:00   80.6     5    3.3   327      7.7    872.5     0.00     868     55.6
 111   14:10   79.5     5    4.5   340      8.6    872.3     0.00     857     55.6
 111   14:20   79.9     5    4.7   287      8.6    872.2     0.00     856     55.7
 111   14:30   80.1     4    5.8   280     10.2    872.1     0.00     867     55.8
 111   14:40   80.2     4    6.7   301     11.6    871.9     0.00     567     55.8
 111   14:50   79.8     5    4.8   260     14.7    871.9     0.00     511     55.9
 111   15:00   79.3     5    3.4   311      7.5    871.7     0.00     382     56.0
 111   15:10   78.2     5    4.6    12     10.2    871.7     0.00     330     56.1
 111   15:20   79.0     6    9.8   250     24.5    871.6     0.00     514     56.2

Return to Blowing Sand Mountains graphs page.


Western Regional Climate Center,wrcc@dri.edu